Flight Track Log - Related Links

Times and Time Zones

All times are in EDT time to prevent confusion due to time zone crossing. See the N24BE flight status page for this flight to view local times or setup timezone preferences in your user account.

Time Position Orientation Groundspeed Altitude Reporting Facility
EDT Latitude Longitude Course Direction KTS MPH feet Rate Location/Type
Mon 01:03:19 PM 30.2969 -87.6964 319° Northwest 94 108 1,300  Level Jacksonville Center
Mon 01:04:14 PM 30.3172 -87.7167 319° Northwest 104 120 2,000 756 Climbing Jacksonville Center
Mon 01:05:34 PM 30.3419 -87.7375 324° Northwest 99 114 3,000 803 Climbing Houston Center
Mon 01:06:36 PM 30.3592 -87.7597 312° West 96 110 3,900 864 Climbing Houston Center
Mon 01:07:39 PM 30.3792 -87.7864 311° West 95 109 4,800 864 Climbing Houston Center
Mon 01:08:41 PM 30.3986 -87.8069 318° Northwest 95 109 5,700 726 Climbing Houston Center
Mon 01:09:43 PM 30.4211 -87.8219 330° Northwest 94 108 6,300 629 Climbing Houston Center
Mon 01:10:45 PM 30.4408 -87.8411 320° Northwest 94 108 7,000 629 Climbing Houston Center
Mon 01:11:47 PM 30.4594 -87.8658 311° West 99 114 7,600 532 Climbing Houston Center
Mon 01:12:49 PM 30.4789 -87.8914 311° West 103 119 8,100 240 Climbing Houston Center
Mon 01:13:52 PM 30.5067 -87.9300 310° West 134 154 8,100  Level Houston Center
Mon 01:14:54 PM 30.5367 -87.9633 316° Northwest 145 167 8,100  Level Houston Center
Mon 01:15:56 PM 30.5650 -88.0019 310° West 154 177 8,100  Level Houston Center
Mon 01:16:58 PM 30.5958 -88.0353 317° Northwest 154 177 8,100  Level Houston Center
Mon 01:18:00 PM 30.6308 -88.0667 322° Northwest 155 178 8,100  Level Houston Center
Mon 01:19:02 PM 30.6631 -88.0989 319° Northwest 155 178 8,100  Level Houston Center
Mon 01:20:05 PM 30.7014 -88.1403 317° Northwest 156 180 8,100  Level Houston Center
Mon 01:21:06 PM 30.7353 -88.1722 321° Northwest 156 180 8,100  Level Houston Center
Mon 01:22:08 PM 30.7697 -88.2017 324° Northwest 156 180 8,100 -48 Level Houston Center
Mon 01:23:10 PM 30.8025 -88.2344 319° Northwest 156 180 8,000  Descending Houston Center
Mon 01:24:12 PM 30.8314 -88.2694 314° West 155 178 8,100 48 Climbing Houston Center
Mon 01:25:14 PM 30.8608 -88.3072 312° West 155 178 8,100  Level Houston Center
Mon 01:26:16 PM 30.8911 -88.3428 315° West 155 178 8,100  Level Houston Center
Mon 01:27:18 PM 30.9269 -88.3869 313° West 155 178 8,100  Level Houston Center
Mon 01:28:20 PM 30.9553 -88.4247 311° West 155 178 8,100  Level Houston Center
Mon 01:29:22 PM 30.9878 -88.4592 318° Northwest 155 178 8,100  Level Houston Center
Mon 01:30:24 PM 31.0303 -88.4700 348° North 157 181 8,100  Level Houston Center
Mon 01:31:26 PM 31.0728 -88.4783 350° North 157 181 8,100  Level Houston Center
Mon 01:32:28 PM 31.1058 -88.5092 321° Northwest 154 177 8,100 -48 Level Houston Center
Mon 01:33:30 PM 31.1386 -88.5422 319° Northwest 154 177 8,000 -48 Descending Houston Center
Mon 01:34:32 PM 31.1806 -88.5739 327° Northwest 154 177 8,000 48 Level Houston Center
Mon 01:35:34 PM 31.2156 -88.5992 328° Northwest 152 175 8,100 48 Climbing Houston Center
Mon 01:36:36 PM 31.2442 -88.6367 312° West 152 175 8,100  Level Houston Center
Mon 01:37:38 PM 31.2722 -88.6711 314° West 151 174 8,100  Level Houston Center
Mon 01:38:40 PM 31.3022 -88.7061 315° West 151 174 8,100  Level Houston Center
Mon 01:39:42 PM 31.3314 -88.7392 316° Northwest 150 173 8,100  Level Houston Center
Mon 01:40:44 PM 31.3606 -88.7717 316° Northwest 149 171 8,100  Level Houston Center
Mon 01:41:46 PM 31.3964 -88.8111 317° Northwest 149 171 8,100  Level Houston Center
Mon 01:42:47 PM 31.4231 -88.8464 312° West 148 170 8,100  Level Houston Center
Mon 01:43:49 PM 31.4494 -88.8833 310° West 147 169 8,100  Level Houston Center
Mon 01:44:51 PM 31.4778 -88.9175 314° West 148 170 8,100  Level Houston Center
Mon 01:45:53 PM 31.5061 -88.9525 314° West 147 169 8,100  Level Houston Center
Mon 01:46:55 PM 31.5347 -88.9864 315° West 147 169 8,100  Level Houston Center
Mon 01:47:57 PM 31.5692 -89.0283 314° West 147 169 8,100  Level Houston Center
Mon 01:48:59 PM 31.5986 -89.0625 315° West 147 169 8,100  Level Houston Center
Mon 01:50:01 PM 31.6267 -89.0964 314° West 147 169 8,100 57 Level Houston Center
Mon 01:50:45 PM 31.6497 -89.1258 313° West 148 170 8,200 -57 Climbing Memphis Center
Mon 01:51:47 PM 31.6786 -89.1608 314° West 148 170 8,000 -48 Descending Memphis Center
Mon 01:52:50 PM 31.7053 -89.1936 314° West 149 171 8,100 48 Climbing Memphis Center
Mon 01:53:51 PM 31.7417 -89.2308 319° Northwest 148 170 8,100  Level Memphis Center
Mon 01:54:53 PM 31.7706 -89.2644 315° West 148 170 8,100 -48 Level Memphis Center
Mon 01:55:55 PM 31.7969 -89.3000 311° West 146 168 8,000  Descending Memphis Center
Mon 01:56:57 PM 31.8236 -89.3339 313° West 146 168 8,100  Climbing Memphis Center
Mon 01:57:59 PM 31.8519 -89.3686 314° West 146 168 8,000 -290 Descending Memphis Center
Mon 01:59:01 PM 31.8900 -89.4103 317° Northwest 155 178 7,500 -435 Descending Memphis Center
Mon 02:00:03 PM 31.9217 -89.4475 315° West 160 184 7,100 -387 Descending Memphis Center
Mon 02:01:05 PM 31.9519 -89.4844 314° West 160 184 6,700 -339 Descending Memphis Center
Mon 02:02:07 PM 31.9831 -89.5194 316° Northwest 159 183 6,400 -290 Descending Memphis Center
Mon 02:03:09 PM 32.0114 -89.5575 311° West 158 182 6,100 -242 Descending Memphis Center
Mon 02:04:11 PM 32.0378 -89.5922 312° West 147 169 5,900 -242 Descending Memphis Center
Mon 02:05:13 PM 32.0731 -89.6336 315° West 147 169 5,600 -290 Descending Memphis Center
Mon 02:06:15 PM 32.1003 -89.6697 312° West 147 169 5,300 -339 Descending Memphis Center
Mon 02:07:17 PM 32.1264 -89.7078 309° West 147 169 4,900 -339 Descending Memphis Center
Mon 02:08:19 PM 32.1539 -89.7458 310° West 148 170 4,600 -290 Descending Memphis Center
Mon 02:09:21 PM 32.1814 -89.7850 310° West 150 173 4,300 -339 Descending Memphis Center
Mon 02:10:23 PM 32.2161 -89.8297 313° West 151 174 3,900 -339 Descending Memphis Center
Mon 02:11:25 PM 32.2433 -89.8700 309° West 152 175 3,600 -242 Descending Memphis Center
Mon 02:12:27 PM 32.2722 -89.9067 313° West 153 176 3,400 -290 Descending Memphis Center
Mon 02:13:29 PM 32.3011 -89.9419 314° West 152 175 3,000 -581 Descending Memphis Center
Mon 02:14:31 PM 32.3306 -89.9758 316° Northwest 152 175 2,200 -823 Descending Memphis Center
Mon 02:15:33 PM 32.3689 -90.0186 317° Northwest 153 176 1,300 -871 Descending Memphis Center
Mon 02:17:00 PM 32.4080 -90.0662 312° West  Level FlightAware Approximate
Mon 02:24:00 PM 32.4333 -90.1000 312° West  Level FlightAware Approximate
Mon 02:25:00 PM 32.4387 -90.1031 North  Level Estimated
Mon 02:26:00 PM 32.4333 -90.1000 312° West  Level FlightAware Approximate

Login

Don't have an account? Register now (free) for customized features, flight alerts, and more!